createdAt,value
2022-08-21T00:00:00.000Z,7.44
2022-08-21T00:15:00.000Z,6.49
2022-08-21T00:30:00.000Z,6.52
2022-08-21T00:45:00.000Z,8.06
2022-08-21T01:15:00.000Z,7
2022-08-21T01:15:00.000Z,6.21
2022-08-21T01:30:00.000Z,5.54
2022-08-21T01:45:00.000Z,6.25
2022-08-21T02:00:00.000Z,5.17
2022-08-21T02:15:00.000Z,4.17
2022-08-21T02:30:00.000Z,3.66
2022-08-21T02:45:00.000Z,3.42
2022-08-21T03:00:00.000Z,3.59
2022-08-21T03:15:00.000Z,3.4
2022-08-21T03:30:00.000Z,3.4
2022-08-21T03:45:00.000Z,3.38
2022-08-21T04:00:00.000Z,3.27
2022-08-21T04:15:00.000Z,3.34
2022-08-21T04:30:00.000Z,3.54
2022-08-21T04:45:00.000Z,3.36
2022-08-21T05:00:00.000Z,3.47
2022-08-21T05:15:00.000Z,3.66
2022-08-21T05:30:00.000Z,3.38
2022-08-21T05:45:00.000Z,3.31
2022-08-21T06:00:00.000Z,3.47
2022-08-21T06:15:00.000Z,3.36
2022-08-21T06:30:00.000Z,3.31
2022-08-21T06:45:00.000Z,3.53
2022-08-21T07:00:00.000Z,3.51
2022-08-21T07:15:00.000Z,3.15
2022-08-21T07:30:00.000Z,3.29
2022-08-21T07:45:00.000Z,3.67
2022-08-21T08:00:00.000Z,4.39
2022-08-21T08:15:00.000Z,3.22
2022-08-21T08:30:00.000Z,3.38
2022-08-21T08:45:00.000Z,3.67
2022-08-21T09:00:00.000Z,3.36
2022-08-21T09:15:00.000Z,3.65
2022-08-21T09:30:00.000Z,3.88
2022-08-21T09:45:00.000Z,3.81
2022-08-21T10:00:00.000Z,3.56
2022-08-21T10:15:00.000Z,3.25
2022-08-21T10:30:00.000Z,3.34
2022-08-21T10:45:00.000Z,3.69
2022-08-21T11:00:00.000Z,3.28
2022-08-21T11:15:00.000Z,5.26
2022-08-21T11:30:00.000Z,3.66
2022-08-21T11:45:00.000Z,3.66
2022-08-21T12:00:00.000Z,3.65
2022-08-21T12:15:00.000Z,5.4
2022-08-21T12:30:00.000Z,3.45
2022-08-21T12:45:00.000Z,4.69
2022-08-21T13:00:00.000Z,3.94
2022-08-21T13:15:00.000Z,4.65
2022-08-21T13:30:00.000Z,3.82
2022-08-21T13:45:00.000Z,3.33
2022-08-21T14:00:00.000Z,3.85
2022-08-21T14:15:00.000Z,3.86
2022-08-21T14:30:00.000Z,4.11
2022-08-21T14:45:00.000Z,3.66
2022-08-21T15:00:00.000Z,3.82
2022-08-21T15:15:00.000Z,4.05
2022-08-21T15:30:00.000Z,5.96
2022-08-21T15:45:00.000Z,4.55
2022-08-21T16:00:00.000Z,4.95
2022-08-21T16:15:00.000Z,3.74
2022-08-21T16:30:00.000Z,4.48
2022-08-21T16:45:00.000Z,4.05
2022-08-21T17:00:00.000Z,4.85
2022-08-21T17:15:00.000Z,5.27
2022-08-21T17:30:00.000Z,5.07
2022-08-21T17:45:00.000Z,5.35
2022-08-21T18:00:00.000Z,5.61
2022-08-21T18:15:00.000Z,5.56
2022-08-21T18:30:00.000Z,5.67
2022-08-21T18:45:00.000Z,6.31
2022-08-21T19:00:00.000Z,6.81
2022-08-21T19:15:00.000Z,7.28
2022-08-21T19:30:00.000Z,7.78
2022-08-21T19:45:00.000Z,8.13
2022-08-21T20:00:00.000Z,6.33
2022-08-21T20:15:00.000Z,6.16
2022-08-21T20:30:00.000Z,6.02
2022-08-21T20:45:00.000Z,5.99
2022-08-21T21:00:00.000Z,6.07
2022-08-21T21:15:00.000Z,6.64
2022-08-21T21:30:00.000Z,6.94
2022-08-21T21:45:00.000Z,7.33
2022-08-21T22:00:00.000Z,7.38
2022-08-21T22:15:00.000Z,6.88
2022-08-21T22:30:00.000Z,7.27
2022-08-21T22:45:00.000Z,7.64
2022-08-21T23:00:00.000Z,7.56
2022-08-21T23:15:00.000Z,7.38
2022-08-21T23:30:00.000Z,8.09
2022-08-21T23:45:00.000Z,8.27
